sensor_id;sensor_type;location;lat;lon;timestamp;temperature;humidity
54824;DHT22;40724;53.196;5.980;2022-08-14T11:02:37;26.70;68.90
54824;DHT22;40724;53.196;5.980;2022-08-14T11:05:07;28.30;79.80
54824;DHT22;40724;53.196;5.980;2022-08-14T11:07:35;28.20;79.20
54824;DHT22;40724;53.196;5.980;2022-08-14T11:10:09;28.20;78.80
54824;DHT22;40724;53.196;5.980;2022-08-14T11:12:51;28.30;78.40
54824;DHT22;40724;53.196;5.980;2022-08-14T11:15:20;28.30;78.90
54824;DHT22;40724;53.196;5.980;2022-08-14T11:17:48;28.30;78.50
54824;DHT22;40724;53.196;5.980;2022-08-14T11:20:17;28.40;78.20
54824;DHT22;40724;53.196;5.980;2022-08-14T11:22:44;28.40;78.20
54824;DHT22;40724;53.196;5.980;2022-08-14T11:25:14;28.50;77.60
54824;DHT22;40724;53.196;5.980;2022-08-14T11:27:43;28.50;77.10
54824;DHT22;40724;53.196;5.980;2022-08-14T11:30:13;28.60;77.30
54824;DHT22;40724;53.196;5.980;2022-08-14T11:32:40;28.60;77.10
54824;DHT22;40724;53.196;5.980;2022-08-14T11:35:12;28.70;77.20
54824;DHT22;40724;53.196;5.980;2022-08-14T11:37:58;28.80;77.00
54824;DHT22;40724;53.196;5.980;2022-08-14T11:40:28;28.80;76.80
54824;DHT22;40724;53.196;5.980;2022-08-14T11:42:55;28.80;76.10
54824;DHT22;40724;53.196;5.980;2022-08-14T11:45:27;28.80;76.30
54824;DHT22;40724;53.196;5.980;2022-08-14T11:47:54;28.80;76.30
54824;DHT22;40724;53.196;5.980;2022-08-14T11:50:25;28.90;76.40
54824;DHT22;40724;53.196;5.980;2022-08-14T11:52:52;28.90;75.80
54824;DHT22;40724;53.196;5.980;2022-08-14T11:55:20;28.90;75.70
54824;DHT22;40724;53.196;5.980;2022-08-14T11:57:46;28.90;75.30
54824;DHT22;40724;53.196;5.980;2022-08-14T12:00:16;28.90;75.00
54824;DHT22;40724;53.196;5.980;2022-08-14T12:02:53;29.00;75.20
54824;DHT22;40724;53.196;5.980;2022-08-14T12:07:56;29.00;74.90
54824;DHT22;40724;53.196;5.980;2022-08-14T12:10:22;29.10;74.20
54824;DHT22;40724;53.196;5.980;2022-08-14T12:12:48;29.20;74.30
54824;DHT22;40724;53.196;5.980;2022-08-14T12:15:34;29.30;74.30
54824;DHT22;40724;53.196;5.980;2022-08-14T12:18:01;29.30;74.00
54824;DHT22;40724;53.196;5.980;2022-08-14T12:20:34;29.30;73.90
54824;DHT22;40724;53.196;5.980;2022-08-14T12:23:06;29.40;72.90
54824;DHT22;40724;53.196;5.980;2022-08-14T12:25:34;29.40;73.00
54824;DHT22;40724;53.196;5.980;2022-08-14T12:28:10;29.50;73.20
54824;DHT22;40724;53.196;5.980;2022-08-14T12:30:44;29.60;71.80
54824;DHT22;40724;53.196;5.980;2022-08-14T12:35:52;29.60;71.80
54824;DHT22;40724;53.196;5.980;2022-08-14T12:38:18;29.80;71.10
54824;DHT22;40724;53.196;5.980;2022-08-14T12:40:55;29.80;70.40
54824;DHT22;40724;53.196;5.980;2022-08-14T12:43:21;29.90;70.00
54824;DHT22;40724;53.196;5.980;2022-08-14T12:45:52;29.90;69.70
54824;DHT22;40724;53.196;5.980;2022-08-14T12:48:22;29.90;68.80
54824;DHT22;40724;53.196;5.980;2022-08-14T12:50:49;29.90;69.20
54824;DHT22;40724;53.196;5.980;2022-08-14T12:53:20;29.90;69.30
54824;DHT22;40724;53.196;5.980;2022-08-14T12:55:57;29.90;68.70
54824;DHT22;40724;53.196;5.980;2022-08-14T12:58:27;29.80;68.40
54824;DHT22;40724;53.196;5.980;2022-08-14T13:00:54;29.90;68.70
54824;DHT22;40724;53.196;5.980;2022-08-14T13:03:28;29.90;68.20
54824;DHT22;40724;53.196;5.980;2022-08-14T13:05:54;29.90;67.40
54824;DHT22;40724;53.196;5.980;2022-08-14T13:08:21;29.90;67.30
54824;DHT22;40724;53.196;5.980;2022-08-14T13:10:49;29.90;67.70
54824;DHT22;40724;53.196;5.980;2022-08-14T13:13:18;29.90;68.00
54824;DHT22;40724;53.196;5.980;2022-08-14T13:15:47;29.80;67.50
54824;DHT22;40724;53.196;5.980;2022-08-14T13:18:14;29.90;68.50
54824;DHT22;40724;53.196;5.980;2022-08-14T13:20:41;30.00;67.90
54824;DHT22;40724;53.196;5.980;2022-08-14T13:23:09;30.00;67.80
54824;DHT22;40724;53.196;5.980;2022-08-14T13:25:35;30.00;67.60
54824;DHT22;40724;53.196;5.980;2022-08-14T13:28:05;30.00;66.70
54824;DHT22;40724;53.196;5.980;2022-08-14T13:30:32;29.90;66.40
54824;DHT22;40724;53.196;5.980;2022-08-14T13:32:59;29.90;66.60
54824;DHT22;40724;53.196;5.980;2022-08-14T13:35:26;29.90;66.70
54824;DHT22;40724;53.196;5.980;2022-08-14T13:37:52;29.80;66.60
54824;DHT22;40724;53.196;5.980;2022-08-14T13:40:19;29.80;66.40
54824;DHT22;40724;53.196;5.980;2022-08-14T13:42:47;29.80;66.60
54824;DHT22;40724;53.196;5.980;2022-08-14T13:45:15;29.80;67.00
54824;DHT22;40724;53.196;5.980;2022-08-14T13:47:42;29.90;67.20
54824;DHT22;40724;53.196;5.980;2022-08-14T13:50:11;29.90;67.10
54824;DHT22;40724;53.196;5.980;2022-08-14T13:52:47;29.90;66.90
54824;DHT22;40724;53.196;5.980;2022-08-14T13:55:27;29.90;67.10
54824;DHT22;40724;53.196;5.980;2022-08-14T13:57:59;29.90;67.40
54824;DHT22;40724;53.196;5.980;2022-08-14T14:00:26;29.90;67.40
54824;DHT22;40724;53.196;5.980;2022-08-14T14:02:53;30.00;67.60
54824;DHT22;40724;53.196;5.980;2022-08-14T14:05:21;30.00;67.10
54824;DHT22;40724;53.196;5.980;2022-08-14T14:07:49;30.10;67.00
54824;DHT22;40724;53.196;5.980;2022-08-14T14:10:17;30.10;66.70
54824;DHT22;40724;53.196;5.980;2022-08-14T14:12:46;30.20;66.90
54824;DHT22;40724;53.196;5.980;2022-08-14T14:15:19;30.20;66.60
54824;DHT22;40724;53.196;5.980;2022-08-14T14:17:45;30.30;66.80
54824;DHT22;40724;53.196;5.980;2022-08-14T14:20:15;30.30;66.90
54824;DHT22;40724;53.196;5.980;2022-08-14T14:22:44;30.20;66.40
54824;DHT22;40724;53.196;5.980;2022-08-14T14:25:11;30.20;66.30
54824;DHT22;40724;53.196;5.980;2022-08-14T14:27:40;30.20;66.60
54824;DHT22;40724;53.196;5.980;2022-08-14T14:30:14;30.30;67.30
54824;DHT22;40724;53.196;5.980;2022-08-14T14:32:42;30.30;67.00
54824;DHT22;40724;53.196;5.980;2022-08-14T14:35:14;30.40;66.50
54824;DHT22;40724;53.196;5.980;2022-08-14T14:37:42;30.40;65.80
54824;DHT22;40724;53.196;5.980;2022-08-14T14:40:09;30.50;65.70
54824;DHT22;40724;53.196;5.980;2022-08-14T14:42:48;30.50;64.90
54824;DHT22;40724;53.196;5.980;2022-08-14T14:45:17;30.50;64.80
54824;DHT22;40724;53.196;5.980;2022-08-14T14:47:46;30.50;64.50
54824;DHT22;40724;53.196;5.980;2022-08-14T14:50:13;30.50;64.20
54824;DHT22;40724;53.196;5.980;2022-08-14T14:52:39;30.60;64.20
54824;DHT22;40724;53.196;5.980;2022-08-14T14:55:08;30.60;64.10
54824;DHT22;40724;53.196;5.980;2022-08-14T14:57:38;30.60;63.70
54824;DHT22;40724;53.196;5.980;2022-08-14T15:00:08;30.60;63.30
54824;DHT22;40724;53.196;5.980;2022-08-14T15:02:37;30.60;63.10
54824;DHT22;40724;53.196;5.980;2022-08-14T15:05:05;30.60;63.30
54824;DHT22;40724;53.196;5.980;2022-08-14T15:07:33;30.70;62.80
54824;DHT22;40724;53.196;5.980;2022-08-14T15:09:59;30.60;63.30
54824;DHT22;40724;53.196;5.980;2022-08-14T15:12:25;30.60;62.90
54824;DHT22;40724;53.196;5.980;2022-08-14T15:14:51;30.60;62.90
54824;DHT22;40724;53.196;5.980;2022-08-14T15:17:16;30.60;63.00
54824;DHT22;40724;53.196;5.980;2022-08-14T15:19:43;30.60;63.00
54824;DHT22;40724;53.196;5.980;2022-08-14T15:22:09;30.50;62.30
54824;DHT22;40724;53.196;5.980;2022-08-14T15:24:36;30.50;63.20
54824;DHT22;40724;53.196;5.980;2022-08-14T15:27:02;30.50;63.10
54824;DHT22;40724;53.196;5.980;2022-08-14T15:29:32;30.50;63.00
54824;DHT22;40724;53.196;5.980;2022-08-14T15:32:08;30.50;62.90
54824;DHT22;40724;53.196;5.980;2022-08-14T15:34:35;30.50;62.50
54824;DHT22;40724;53.196;5.980;2022-08-14T15:37:03;30.60;62.80
54824;DHT22;40724;53.196;5.980;2022-08-14T15:39:31;30.60;62.50
54824;DHT22;40724;53.196;5.980;2022-08-14T15:41:57;30.60;62.10
54824;DHT22;40724;53.196;5.980;2022-08-14T15:44:25;30.70;62.60
54824;DHT22;40724;53.196;5.980;2022-08-14T15:46:51;30.70;62.30
54824;DHT22;40724;53.196;5.980;2022-08-14T15:49:17;30.60;62.30
54824;DHT22;40724;53.196;5.980;2022-08-14T15:51:43;30.50;62.00
54824;DHT22;40724;53.196;5.980;2022-08-14T15:54:09;30.50;61.80
54824;DHT22;40724;53.196;5.980;2022-08-14T15:56:35;30.40;62.30
54824;DHT22;40724;53.196;5.980;2022-08-14T15:59:02;30.40;62.40
54824;DHT22;40724;53.196;5.980;2022-08-14T16:01:28;30.40;62.40
54824;DHT22;40724;53.196;5.980;2022-08-14T16:03:55;30.30;62.40
54824;DHT22;40724;53.196;5.980;2022-08-14T16:06:25;30.30;61.80
54824;DHT22;40724;53.196;5.980;2022-08-14T16:08:53;30.20;62.10
54824;DHT22;40724;53.196;5.980;2022-08-14T17:52:09;30.20;61.60
54824;DHT22;40724;53.196;5.980;2022-08-14T17:54:44;29.30;65.70
54824;DHT22;40724;53.196;5.980;2022-08-14T17:57:23;29.30;65.60
54824;DHT22;40724;53.196;5.980;2022-08-14T17:59:52;29.20;65.80
54824;DHT22;40724;53.196;5.980;2022-08-14T18:02:24;29.20;66.10
54824;DHT22;40724;53.196;5.980;2022-08-14T18:04:56;29.20;66.60
54824;DHT22;40724;53.196;5.980;2022-08-14T18:07:26;29.10;67.10
54824;DHT22;40724;53.196;5.980;2022-08-14T18:09:55;29.00;67.00
54824;DHT22;40724;53.196;5.980;2022-08-14T18:12:23;29.00;67.30
54824;DHT22;40724;53.196;5.980;2022-08-14T18:14:49;28.90;67.40
54824;DHT22;40724;53.196;5.980;2022-08-14T18:17:16;28.90;67.60
54824;DHT22;40724;53.196;5.980;2022-08-14T18:19:46;28.90;68.10
54824;DHT22;40724;53.196;5.980;2022-08-14T18:22:15;28.80;68.30
54824;DHT22;40724;53.196;5.980;2022-08-14T18:24:43;28.70;68.40
54824;DHT22;40724;53.196;5.980;2022-08-14T18:27:13;28.70;68.70
54824;DHT22;40724;53.196;5.980;2022-08-14T18:29:43;28.60;68.90
54824;DHT22;40724;53.196;5.980;2022-08-14T18:34:59;28.50;70.00
54824;DHT22;40724;53.196;5.980;2022-08-14T18:37:26;28.40;69.90
54824;DHT22;40724;53.196;5.980;2022-08-14T18:39:52;28.40;70.40
54824;DHT22;40724;53.196;5.980;2022-08-14T19:02:54;27.80;80.90
54824;DHT22;40724;53.196;5.980;2022-08-14T19:10:53;27.60;82.70
54824;DHT22;40724;53.196;5.980;2022-08-14T19:16:07;27.40;84.30
54824;DHT22;40724;53.196;5.980;2022-08-14T19:18:35;27.40;85.60
54824;DHT22;40724;53.196;5.980;2022-08-14T19:21:04;27.30;85.00
54824;DHT22;40724;53.196;5.980;2022-08-14T20:06:10;27.20;86.00
54824;DHT22;40724;53.196;5.980;2022-08-14T20:08:37;26.40;92.00
54824;DHT22;40724;53.196;5.980;2022-08-14T21:14:23;26.20;92.20
54824;DHT22;40724;53.196;5.980;2022-08-14T22:03:56;25.50;94.90
54824;DHT22;40724;53.196;5.980;2022-08-14T22:06:23;24.90;94.80
